sensor_id;sensor_type;location;lat;lon;timestamp;P1;durP1;ratioP1;P2;durP2;ratioP2
50350;SDS011;36250;48.740;22.174;2024-03-06T00:01:29;31.92;;;20.42;;
50350;SDS011;36250;48.740;22.174;2024-03-06T00:03:54;29.33;;;19.50;;
50350;SDS011;36250;48.740;22.174;2024-03-06T00:06:19;30.17;;;18.65;;
50350;SDS011;36250;48.740;22.174;2024-03-06T00:08:45;29.58;;;17.52;;
50350;SDS011;36250;48.740;22.174;2024-03-06T00:11:10;18.58;;;13.00;;
50350;SDS011;36250;48.740;22.174;2024-03-06T00:13:35;19.73;;;13.02;;
50350;SDS011;36250;48.740;22.174;2024-03-06T00:16:01;21.25;;;13.93;;
50350;SDS011;36250;48.740;22.174;2024-03-06T00:18:26;19.50;;;13.65;;
50350;SDS011;36250;48.740;22.174;2024-03-06T00:20:51;17.80;;;11.70;;
50350;SDS011;36250;48.740;22.174;2024-03-06T00:23:17;18.05;;;12.10;;
50350;SDS011;36250;48.740;22.174;2024-03-06T00:25:42;19.13;;;12.88;;
50350;SDS011;36250;48.740;22.174;2024-03-06T00:28:07;21.50;;;12.52;;
50350;SDS011;36250;48.740;22.174;2024-03-06T00:30:33;21.35;;;14.70;;
50350;SDS011;36250;48.740;22.174;2024-03-06T00:32:58;20.52;;;12.95;;
50350;SDS011;36250;48.740;22.174;2024-03-06T00:35:24;18.02;;;12.88;;
50350;SDS011;36250;48.740;22.174;2024-03-06T00:37:49;18.95;;;12.77;;
50350;SDS011;36250;48.740;22.174;2024-03-06T00:40:15;19.55;;;13.55;;
50350;SDS011;36250;48.740;22.174;2024-03-06T00:42:41;23.90;;;14.55;;
50350;SDS011;36250;48.740;22.174;2024-03-06T00:45:07;18.20;;;12.80;;
50350;SDS011;36250;48.740;22.174;2024-03-06T00:47:32;22.15;;;14.00;;
50350;SDS011;36250;48.740;22.174;2024-03-06T00:49:59;18.83;;;13.48;;
50350;SDS011;36250;48.740;22.174;2024-03-06T00:52:25;26.25;;;15.30;;
50350;SDS011;36250;48.740;22.174;2024-03-06T00:54:50;20.05;;;13.82;;
50350;SDS011;36250;48.740;22.174;2024-03-06T00:57:15;20.92;;;14.20;;
50350;SDS011;36250;48.740;22.174;2024-03-06T00:59:41;20.08;;;13.15;;
50350;SDS011;36250;48.740;22.174;2024-03-06T01:02:06;22.40;;;15.45;;
50350;SDS011;36250;48.740;22.174;2024-03-06T01:04:31;17.08;;;11.63;;
50350;SDS011;36250;48.740;22.174;2024-03-06T01:06:57;17.88;;;11.35;;
50350;SDS011;36250;48.740;22.174;2024-03-06T01:09:23;18.67;;;12.23;;
50350;SDS011;36250;48.740;22.174;2024-03-06T01:11:49;18.35;;;12.02;;
50350;SDS011;36250;48.740;22.174;2024-03-06T01:14:15;17.80;;;11.50;;
50350;SDS011;36250;48.740;22.174;2024-03-06T01:16:41;19.73;;;12.15;;
50350;SDS011;36250;48.740;22.174;2024-03-06T01:19:06;19.38;;;12.18;;
50350;SDS011;36250;48.740;22.174;2024-03-06T01:21:32;23.83;;;15.02;;
50350;SDS011;36250;48.740;22.174;2024-03-06T01:23:59;25.02;;;14.65;;
50350;SDS011;36250;48.740;22.174;2024-03-06T01:26:25;21.75;;;13.75;;
50350;SDS011;36250;48.740;22.174;2024-03-06T01:28:50;20.00;;;13.75;;
50350;SDS011;36250;48.740;22.174;2024-03-06T01:31:15;19.63;;;12.63;;
50350;SDS011;36250;48.740;22.174;2024-03-06T01:33:41;17.60;;;11.73;;
50350;SDS011;36250;48.740;22.174;2024-03-06T01:36:06;17.42;;;11.48;;
50350;SDS011;36250;48.740;22.174;2024-03-06T01:38:32;17.20;;;11.68;;
50350;SDS011;36250;48.740;22.174;2024-03-06T01:40:57;20.40;;;11.80;;
50350;SDS011;36250;48.740;22.174;2024-03-06T01:43:23;18.45;;;11.85;;
50350;SDS011;36250;48.740;22.174;2024-03-06T01:45:50;21.38;;;12.80;;
50350;SDS011;36250;48.740;22.174;2024-03-06T01:48:18;17.23;;;11.65;;
50350;SDS011;36250;48.740;22.174;2024-03-06T01:50:53;17.67;;;12.13;;
50350;SDS011;36250;48.740;22.174;2024-03-06T01:53:21;24.45;;;12.90;;
50350;SDS011;36250;48.740;22.174;2024-03-06T01:55:47;19.45;;;13.60;;
50350;SDS011;36250;48.740;22.174;2024-03-06T01:58:13;18.98;;;12.25;;
50350;SDS011;36250;48.740;22.174;2024-03-06T02:00:39;16.17;;;11.45;;
50350;SDS011;36250;48.740;22.174;2024-03-06T02:03:05;17.40;;;11.30;;
50350;SDS011;36250;48.740;22.174;2024-03-06T02:05:31;22.52;;;11.43;;
50350;SDS011;36250;48.740;22.174;2024-03-06T02:07:57;16.42;;;10.50;;
50350;SDS011;36250;48.740;22.174;2024-03-06T02:10:27;20.40;;;11.65;;
50350;SDS011;36250;48.740;22.174;2024-03-06T02:12:53;18.92;;;12.20;;
50350;SDS011;36250;48.740;22.174;2024-03-06T02:15:19;15.27;;;11.45;;
50350;SDS011;36250;48.740;22.174;2024-03-06T02:17:45;17.13;;;11.35;;
50350;SDS011;36250;48.740;22.174;2024-03-06T02:20:11;17.83;;;10.93;;
50350;SDS011;36250;48.740;22.174;2024-03-06T02:22:38;18.40;;;11.68;;
50350;SDS011;36250;48.740;22.174;2024-03-06T02:25:04;20.40;;;12.70;;
50350;SDS011;36250;48.740;22.174;2024-03-06T02:27:31;16.88;;;11.32;;
50350;SDS011;36250;48.740;22.174;2024-03-06T02:29:57;16.27;;;10.93;;
50350;SDS011;36250;48.740;22.174;2024-03-06T02:32:23;18.38;;;11.40;;
50350;SDS011;36250;48.740;22.174;2024-03-06T02:34:49;16.98;;;11.38;;
50350;SDS011;36250;48.740;22.174;2024-03-06T02:37:15;18.10;;;11.02;;
50350;SDS011;36250;48.740;22.174;2024-03-06T02:39:41;16.80;;;11.50;;
50350;SDS011;36250;48.740;22.174;2024-03-06T02:42:06;15.57;;;10.90;;
50350;SDS011;36250;48.740;22.174;2024-03-06T02:44:32;15.27;;;10.75;;
50350;SDS011;36250;48.740;22.174;2024-03-06T02:46:58;16.05;;;11.00;;
50350;SDS011;36250;48.740;22.174;2024-03-06T02:49:24;14.52;;;11.13;;
50350;SDS011;36250;48.740;22.174;2024-03-06T02:51:49;19.85;;;12.05;;
50350;SDS011;36250;48.740;22.174;2024-03-06T02:54:16;17.80;;;11.35;;
50350;SDS011;36250;48.740;22.174;2024-03-06T02:56:41;16.08;;;10.68;;
50350;SDS011;36250;48.740;22.174;2024-03-06T02:59:07;14.68;;;9.95;;
50350;SDS011;36250;48.740;22.174;2024-03-06T03:01:32;15.85;;;11.55;;
50350;SDS011;36250;48.740;22.174;2024-03-06T03:03:58;18.33;;;11.70;;
50350;SDS011;36250;48.740;22.174;2024-03-06T03:06:23;18.10;;;11.38;;
50350;SDS011;36250;48.740;22.174;2024-03-06T03:08:51;16.90;;;11.32;;
50350;SDS011;36250;48.740;22.174;2024-03-06T03:11:17;15.57;;;11.20;;
50350;SDS011;36250;48.740;22.174;2024-03-06T03:13:42;17.55;;;11.30;;
50350;SDS011;36250;48.740;22.174;2024-03-06T03:16:17;17.92;;;10.65;;
50350;SDS011;36250;48.740;22.174;2024-03-06T03:18:44;15.25;;;9.98;;
50350;SDS011;36250;48.740;22.174;2024-03-06T03:21:10;14.40;;;10.43;;
50350;SDS011;36250;48.740;22.174;2024-03-06T03:23:36;15.63;;;9.50;;
50350;SDS011;36250;48.740;22.174;2024-03-06T03:26:02;14.55;;;9.30;;
50350;SDS011;36250;48.740;22.174;2024-03-06T03:28:28;13.50;;;10.48;;
50350;SDS011;36250;48.740;22.174;2024-03-06T03:30:54;14.23;;;9.38;;
50350;SDS011;36250;48.740;22.174;2024-03-06T03:33:19;17.80;;;9.77;;
50350;SDS011;36250;48.740;22.174;2024-03-06T03:35:45;14.82;;;10.25;;
50350;SDS011;36250;48.740;22.174;2024-03-06T03:38:10;16.25;;;9.63;;
50350;SDS011;36250;48.740;22.174;2024-03-06T03:40:35;13.93;;;9.23;;
50350;SDS011;36250;48.740;22.174;2024-03-06T03:43:01;13.07;;;8.88;;
50350;SDS011;36250;48.740;22.174;2024-03-06T03:45:31;14.23;;;8.88;;
50350;SDS011;36250;48.740;22.174;2024-03-06T03:47:57;16.00;;;9.98;;
50350;SDS011;36250;48.740;22.174;2024-03-06T03:50:22;13.23;;;9.32;;
50350;SDS011;36250;48.740;22.174;2024-03-06T03:52:47;12.18;;;8.45;;
50350;SDS011;36250;48.740;22.174;2024-03-06T03:55:13;12.23;;;8.43;;
50350;SDS011;36250;48.740;22.174;2024-03-06T03:57:38;13.27;;;8.40;;
50350;SDS011;36250;48.740;22.174;2024-03-06T04:00:04;11.90;;;8.38;;
50350;SDS011;36250;48.740;22.174;2024-03-06T04:02:35;13.35;;;8.57;;
50350;SDS011;36250;48.740;22.174;2024-03-06T04:05:01;10.48;;;8.20;;
50350;SDS011;36250;48.740;22.174;2024-03-06T04:07:27;15.45;;;8.90;;
50350;SDS011;36250;48.740;22.174;2024-03-06T04:09:52;12.75;;;8.05;;
50350;SDS011;36250;48.740;22.174;2024-03-06T04:12:18;16.60;;;8.73;;
50350;SDS011;36250;48.740;22.174;2024-03-06T04:14:43;12.80;;;8.10;;
50350;SDS011;36250;48.740;22.174;2024-03-06T04:17:09;8.95;;;7.10;;
50350;SDS011;36250;48.740;22.174;2024-03-06T04:19:34;14.48;;;8.88;;
50350;SDS011;36250;48.740;22.174;2024-03-06T04:21:59;11.20;;;8.00;;
50350;SDS011;36250;48.740;22.174;2024-03-06T04:24:25;10.93;;;7.75;;
50350;SDS011;36250;48.740;22.174;2024-03-06T04:26:51;11.77;;;7.95;;
50350;SDS011;36250;48.740;22.174;2024-03-06T04:29:17;11.40;;;9.13;;
50350;SDS011;36250;48.740;22.174;2024-03-06T04:31:42;11.65;;;7.63;;
50350;SDS011;36250;48.740;22.174;2024-03-06T04:34:07;12.55;;;8.57;;
50350;SDS011;36250;48.740;22.174;2024-03-06T04:36:33;12.35;;;8.65;;
50350;SDS011;36250;48.740;22.174;2024-03-06T04:38:58;14.25;;;8.10;;
50350;SDS011;36250;48.740;22.174;2024-03-06T04:41:23;13.27;;;7.80;;
50350;SDS011;36250;48.740;22.174;2024-03-06T04:43:49;12.57;;;8.07;;
50350;SDS011;36250;48.740;22.174;2024-03-06T04:46:17;14.43;;;8.45;;
50350;SDS011;36250;48.740;22.174;2024-03-06T04:48:43;15.38;;;9.63;;
50350;SDS011;36250;48.740;22.174;2024-03-06T04:51:09;17.85;;;10.45;;
50350;SDS011;36250;48.740;22.174;2024-03-06T04:53:35;17.55;;;10.05;;
50350;SDS011;36250;48.740;22.174;2024-03-06T04:56:00;14.07;;;9.27;;
50350;SDS011;36250;48.740;22.174;2024-03-06T04:58:26;26.65;;;11.70;;
50350;SDS011;36250;48.740;22.174;2024-03-06T05:00:51;13.93;;;8.27;;
50350;SDS011;36250;48.740;22.174;2024-03-06T05:03:16;14.77;;;8.50;;
50350;SDS011;36250;48.740;22.174;2024-03-06T05:05:42;14.70;;;8.20;;
50350;SDS011;36250;48.740;22.174;2024-03-06T05:08:07;11.80;;;7.80;;
50350;SDS011;36250;48.740;22.174;2024-03-06T05:10:33;11.25;;;8.15;;
50350;SDS011;36250;48.740;22.174;2024-03-06T05:13:00;10.77;;;7.38;;
50350;SDS011;36250;48.740;22.174;2024-03-06T05:15:25;13.57;;;7.78;;
50350;SDS011;36250;48.740;22.174;2024-03-06T05:17:51;9.52;;;7.47;;
50350;SDS011;36250;48.740;22.174;2024-03-06T05:20:16;14.23;;;7.60;;
50350;SDS011;36250;48.740;22.174;2024-03-06T05:22:42;15.88;;;8.65;;
50350;SDS011;36250;48.740;22.174;2024-03-06T05:25:08;13.45;;;8.88;;
50350;SDS011;36250;48.740;22.174;2024-03-06T05:27:33;12.45;;;7.80;;
50350;SDS011;36250;48.740;22.174;2024-03-06T05:29:58;11.57;;;8.05;;
50350;SDS011;36250;48.740;22.174;2024-03-06T05:32:24;15.68;;;8.43;;
50350;SDS011;36250;48.740;22.174;2024-03-06T05:34:49;33.03;;;16.15;;
50350;SDS011;36250;48.740;22.174;2024-03-06T05:37:15;21.70;;;12.07;;
50350;SDS011;36250;48.740;22.174;2024-03-06T05:39:40;19.80;;;11.27;;
50350;SDS011;36250;48.740;22.174;2024-03-06T05:42:07;20.60;;;10.77;;
50350;SDS011;36250;48.740;22.174;2024-03-06T05:44:33;36.35;;;17.83;;
50350;SDS011;36250;48.740;22.174;2024-03-06T05:46:59;42.47;;;18.58;;
50350;SDS011;36250;48.740;22.174;2024-03-06T05:49:26;31.85;;;16.00;;
50350;SDS011;36250;48.740;22.174;2024-03-06T05:51:52;29.60;;;14.38;;
50350;SDS011;36250;48.740;22.174;2024-03-06T05:54:18;17.55;;;9.70;;
50350;SDS011;36250;48.740;22.174;2024-03-06T05:56:44;15.95;;;7.53;;
50350;SDS011;36250;48.740;22.174;2024-03-06T05:59:09;12.02;;;6.60;;
50350;SDS011;36250;48.740;22.174;2024-03-06T06:01:35;9.43;;;6.55;;
50350;SDS011;36250;48.740;22.174;2024-03-06T06:04:00;12.05;;;7.20;;
50350;SDS011;36250;48.740;22.174;2024-03-06T06:06:26;14.10;;;8.48;;
50350;SDS011;36250;48.740;22.174;2024-03-06T06:08:51;12.13;;;7.50;;
50350;SDS011;36250;48.740;22.174;2024-03-06T06:11:17;8.18;;;6.05;;
50350;SDS011;36250;48.740;22.174;2024-03-06T06:13:42;9.15;;;5.93;;
50350;SDS011;36250;48.740;22.174;2024-03-06T06:16:08;7.43;;;5.82;;
50350;SDS011;36250;48.740;22.174;2024-03-06T06:18:33;12.10;;;6.40;;
50350;SDS011;36250;48.740;22.174;2024-03-06T06:20:59;12.07;;;6.75;;
50350;SDS011;36250;48.740;22.174;2024-03-06T06:23:24;8.75;;;6.30;;
50350;SDS011;36250;48.740;22.174;2024-03-06T06:25:50;16.98;;;10.10;;
50350;SDS011;36250;48.740;22.174;2024-03-06T06:28:16;9.77;;;7.00;;
50350;SDS011;36250;48.740;22.174;2024-03-06T06:30:41;11.95;;;8.10;;
50350;SDS011;36250;48.740;22.174;2024-03-06T06:33:06;13.60;;;8.93;;
50350;SDS011;36250;48.740;22.174;2024-03-06T06:35:33;12.80;;;7.95;;
50350;SDS011;36250;48.740;22.174;2024-03-06T06:37:59;12.20;;;6.90;;
50350;SDS011;36250;48.740;22.174;2024-03-06T06:40:25;16.75;;;8.18;;
50350;SDS011;36250;48.740;22.174;2024-03-06T06:42:50;15.25;;;8.90;;
50350;SDS011;36250;48.740;22.174;2024-03-06T06:45:16;10.90;;;7.20;;
50350;SDS011;36250;48.740;22.174;2024-03-06T06:47:42;10.30;;;7.03;;
50350;SDS011;36250;48.740;22.174;2024-03-06T06:50:08;9.90;;;6.90;;
50350;SDS011;36250;48.740;22.174;2024-03-06T06:52:40;8.32;;;5.90;;
50350;SDS011;36250;48.740;22.174;2024-03-06T06:55:07;10.95;;;6.55;;
50350;SDS011;36250;48.740;22.174;2024-03-06T06:57:34;10.15;;;5.70;;
50350;SDS011;36250;48.740;22.174;2024-03-06T07:00:00;11.90;;;6.68;;
50350;SDS011;36250;48.740;22.174;2024-03-06T07:02:31;9.60;;;6.15;;
50350;SDS011;36250;48.740;22.174;2024-03-06T07:04:57;18.02;;;12.15;;
50350;SDS011;36250;48.740;22.174;2024-03-06T07:07:22;54.88;;;31.05;;
50350;SDS011;36250;48.740;22.174;2024-03-06T07:09:47;25.77;;;14.23;;
50350;SDS011;36250;48.740;22.174;2024-03-06T07:12:14;16.42;;;10.43;;
50350;SDS011;36250;48.740;22.174;2024-03-06T07:14:39;23.42;;;11.90;;
50350;SDS011;36250;48.740;22.174;2024-03-06T07:17:04;105.30;;;54.38;;
50350;SDS011;36250;48.740;22.174;2024-03-06T07:19:30;26.60;;;14.82;;
50350;SDS011;36250;48.740;22.174;2024-03-06T07:21:55;44.70;;;25.70;;
50350;SDS011;36250;48.740;22.174;2024-03-06T07:24:20;34.03;;;17.92;;
50350;SDS011;36250;48.740;22.174;2024-03-06T07:26:46;26.45;;;14.95;;
50350;SDS011;36250;48.740;22.174;2024-03-06T07:29:11;13.63;;;9.25;;
50350;SDS011;36250;48.740;22.174;2024-03-06T07:31:42;9.13;;;6.05;;
50350;SDS011;36250;48.740;22.174;2024-03-06T07:34:09;7.45;;;5.22;;
50350;SDS011;36250;48.740;22.174;2024-03-06T07:36:34;5.88;;;5.00;;
50350;SDS011;36250;48.740;22.174;2024-03-06T07:39:00;6.80;;;4.68;;
50350;SDS011;36250;48.740;22.174;2024-03-06T07:41:26;12.15;;;5.22;;
50350;SDS011;36250;48.740;22.174;2024-03-06T07:43:51;8.45;;;5.65;;
50350;SDS011;36250;48.740;22.174;2024-03-06T07:46:16;9.73;;;7.00;;
50350;SDS011;36250;48.740;22.174;2024-03-06T07:48:42;10.65;;;6.85;;
50350;SDS011;36250;48.740;22.174;2024-03-06T07:51:09;7.65;;;5.78;;
50350;SDS011;36250;48.740;22.174;2024-03-06T07:53:34;46.10;;;23.40;;
50350;SDS011;36250;48.740;22.174;2024-03-06T07:56:00;12.98;;;8.82;;
50350;SDS011;36250;48.740;22.174;2024-03-06T07:58:25;13.27;;;6.28;;
50350;SDS011;36250;48.740;22.174;2024-03-06T08:00:51;9.48;;;5.35;;
50350;SDS011;36250;48.740;22.174;2024-03-06T08:03:20;14.00;;;9.98;;
50350;SDS011;36250;48.740;22.174;2024-03-06T08:05:45;25.92;;;15.98;;
50350;SDS011;36250;48.740;22.174;2024-03-06T08:08:11;8.40;;;5.40;;
50350;SDS011;36250;48.740;22.174;2024-03-06T08:10:36;5.32;;;4.10;;
50350;SDS011;36250;48.740;22.174;2024-03-06T08:13:02;6.10;;;5.05;;
50350;SDS011;36250;48.740;22.174;2024-03-06T08:15:28;12.52;;;8.90;;
50350;SDS011;36250;48.740;22.174;2024-03-06T08:17:54;13.90;;;7.75;;
50350;SDS011;36250;48.740;22.174;2024-03-06T08:20:19;10.68;;;7.18;;
50350;SDS011;36250;48.740;22.174;2024-03-06T08:22:45;11.80;;;4.97;;
50350;SDS011;36250;48.740;22.174;2024-03-06T08:25:11;8.00;;;5.30;;
50350;SDS011;36250;48.740;22.174;2024-03-06T08:27:38;8.60;;;5.95;;
50350;SDS011;36250;48.740;22.174;2024-03-06T08:30:05;8.65;;;6.30;;
50350;SDS011;36250;48.740;22.174;2024-03-06T08:32:32;5.28;;;4.63;;
50350;SDS011;36250;48.740;22.174;2024-03-06T08:35:00;5.93;;;4.40;;
50350;SDS011;36250;48.740;22.174;2024-03-06T08:37:32;5.72;;;4.32;;
50350;SDS011;36250;48.740;22.174;2024-03-06T08:39:59;29.48;;;13.18;;
50350;SDS011;36250;48.740;22.174;2024-03-06T08:42:27;9.32;;;5.22;;
50350;SDS011;36250;48.740;22.174;2024-03-06T08:44:53;11.63;;;5.50;;
50350;SDS011;36250;48.740;22.174;2024-03-06T08:47:18;7.75;;;5.03;;
50350;SDS011;36250;48.740;22.174;2024-03-06T08:49:44;7.90;;;5.47;;
50350;SDS011;36250;48.740;22.174;2024-03-06T08:52:10;5.95;;;4.55;;
50350;SDS011;36250;48.740;22.174;2024-03-06T08:54:36;4.63;;;4.20;;
50350;SDS011;36250;48.740;22.174;2024-03-06T08:57:02;5.60;;;4.60;;
50350;SDS011;36250;48.740;22.174;2024-03-06T08:59:30;6.20;;;5.32;;
50350;SDS011;36250;48.740;22.174;2024-03-06T09:01:55;8.77;;;5.13;;
50350;SDS011;36250;48.740;22.174;2024-03-06T09:04:21;8.60;;;5.28;;
50350;SDS011;36250;48.740;22.174;2024-03-06T09:06:47;10.23;;;5.72;;
50350;SDS011;36250;48.740;22.174;2024-03-06T09:09:13;11.77;;;6.75;;
50350;SDS011;36250;48.740;22.174;2024-03-06T09:11:40;6.85;;;5.13;;
50350;SDS011;36250;48.740;22.174;2024-03-06T09:14:06;11.85;;;7.60;;
50350;SDS011;36250;48.740;22.174;2024-03-06T09:16:32;14.65;;;8.38;;
50350;SDS011;36250;48.740;22.174;2024-03-06T09:18:57;18.25;;;6.40;;
50350;SDS011;36250;48.740;22.174;2024-03-06T09:21:23;17.10;;;4.93;;
50350;SDS011;36250;48.740;22.174;2024-03-06T09:23:48;9.20;;;4.15;;
50350;SDS011;36250;48.740;22.174;2024-03-06T09:26:16;12.50;;;9.57;;
50350;SDS011;36250;48.740;22.174;2024-03-06T09:28:42;6.50;;;5.22;;
50350;SDS011;36250;48.740;22.174;2024-03-06T09:31:07;8.35;;;3.97;;
50350;SDS011;36250;48.740;22.174;2024-03-06T09:33:32;6.07;;;4.07;;
50350;SDS011;36250;48.740;22.174;2024-03-06T09:35:58;7.45;;;5.00;;
50350;SDS011;36250;48.740;22.174;2024-03-06T09:38:24;8.30;;;5.15;;
50350;SDS011;36250;48.740;22.174;2024-03-06T09:40:49;8.18;;;5.20;;
50350;SDS011;36250;48.740;22.174;2024-03-06T09:43:16;6.75;;;5.75;;
50350;SDS011;36250;48.740;22.174;2024-03-06T09:45:42;5.63;;;4.63;;
50350;SDS011;36250;48.740;22.174;2024-03-06T09:48:13;6.32;;;4.80;;
50350;SDS011;36250;48.740;22.174;2024-03-06T09:50:38;7.20;;;5.65;;
50350;SDS011;36250;48.740;22.174;2024-03-06T09:53:10;12.63;;;4.85;;
50350;SDS011;36250;48.740;22.174;2024-03-06T09:55:40;7.72;;;3.65;;
50350;SDS011;36250;48.740;22.174;2024-03-06T09:58:07;11.05;;;3.75;;
50350;SDS011;36250;48.740;22.174;2024-03-06T10:00:33;8.02;;;3.17;;
50350;SDS011;36250;48.740;22.174;2024-03-06T10:03:02;10.32;;;3.55;;
50350;SDS011;36250;48.740;22.174;2024-03-06T10:05:30;7.65;;;2.75;;
50350;SDS011;36250;48.740;22.174;2024-03-06T10:07:58;5.72;;;3.20;;
50350;SDS011;36250;48.740;22.174;2024-03-06T10:10:24;5.95;;;3.45;;
50350;SDS011;36250;48.740;22.174;2024-03-06T10:12:50;4.50;;;3.47;;
50350;SDS011;36250;48.740;22.174;2024-03-06T10:15:15;5.80;;;3.85;;
50350;SDS011;36250;48.740;22.174;2024-03-06T10:17:41;4.40;;;4.00;;
50350;SDS011;36250;48.740;22.174;2024-03-06T10:20:16;9.20;;;3.90;;
50350;SDS011;36250;48.740;22.174;2024-03-06T10:22:52;5.45;;;4.13;;
50350;SDS011;36250;48.740;22.174;2024-03-06T10:25:22;4.03;;;3.63;;
50350;SDS011;36250;48.740;22.174;2024-03-06T10:28:03;5.40;;;4.28;;
50350;SDS011;36250;48.740;22.174;2024-03-06T10:30:36;4.47;;;3.63;;
50350;SDS011;36250;48.740;22.174;2024-03-06T10:33:03;5.97;;;4.80;;
50350;SDS011;36250;48.740;22.174;2024-03-06T10:35:31;4.85;;;3.83;;
50350;SDS011;36250;48.740;22.174;2024-03-06T10:38:02;5.60;;;3.53;;
50350;SDS011;36250;48.740;22.174;2024-03-06T10:40:30;2.97;;;2.53;;
50350;SDS011;36250;48.740;22.174;2024-03-06T10:42:57;3.47;;;3.17;;
50350;SDS011;36250;48.740;22.174;2024-03-06T10:45:24;4.28;;;3.40;;
50350;SDS011;36250;48.740;22.174;2024-03-06T10:48:12;7.47;;;5.78;;
50350;SDS011;36250;48.740;22.174;2024-03-06T10:50:39;5.63;;;4.80;;
50350;SDS011;36250;48.740;22.174;2024-03-06T10:53:10;4.75;;;3.05;;
50350;SDS011;36250;48.740;22.174;2024-03-06T10:55:42;3.25;;;2.72;;
50350;SDS011;36250;48.740;22.174;2024-03-06T10:58:11;3.78;;;3.08;;
50350;SDS011;36250;48.740;22.174;2024-03-06T11:00:38;4.28;;;3.25;;
50350;SDS011;36250;48.740;22.174;2024-03-06T11:03:09;2.80;;;2.50;;
50350;SDS011;36250;48.740;22.174;2024-03-06T11:05:40;4.03;;;3.10;;
50350;SDS011;36250;48.740;22.174;2024-03-06T11:08:12;5.28;;;2.90;;
50350;SDS011;36250;48.740;22.174;2024-03-06T11:10:39;3.25;;;2.80;;
50350;SDS011;36250;48.740;22.174;2024-03-06T11:13:22;2.95;;;2.60;;
50350;SDS011;36250;48.740;22.174;2024-03-06T11:15:49;3.17;;;2.88;;
50350;SDS011;36250;48.740;22.174;2024-03-06T11:23:29;2.42;;;2.17;;
50350;SDS011;36250;48.740;22.174;2024-03-06T11:31:02;5.07;;;2.72;;
50350;SDS011;36250;48.740;22.174;2024-03-06T11:33:42;2.80;;;2.55;;
50350;SDS011;36250;48.740;22.174;2024-03-06T11:38:50;5.07;;;2.72;;
50350;SDS011;36250;48.740;22.174;2024-03-06T11:41:26;7.68;;;5.32;;
50350;SDS011;36250;48.740;22.174;2024-03-06T11:43:53;10.82;;;5.57;;
50350;SDS011;36250;48.740;22.174;2024-03-06T11:46:21;5.78;;;4.75;;
50350;SDS011;36250;48.740;22.174;2024-03-06T11:48:54;5.97;;;2.97;;
50350;SDS011;36250;48.740;22.174;2024-03-06T11:51:20;3.50;;;3.20;;
50350;SDS011;36250;48.740;22.174;2024-03-06T11:53:45;8.80;;;4.85;;
50350;SDS011;36250;48.740;22.174;2024-03-06T11:56:14;4.70;;;3.80;;
50350;SDS011;36250;48.740;22.174;2024-03-06T11:58:39;6.45;;;4.75;;
50350;SDS011;36250;48.740;22.174;2024-03-06T12:01:05;9.23;;;4.72;;
50350;SDS011;36250;48.740;22.174;2024-03-06T12:03:31;3.03;;;2.67;;
50350;SDS011;36250;48.740;22.174;2024-03-06T12:05:57;4.78;;;3.78;;
50350;SDS011;36250;48.740;22.174;2024-03-06T12:08:23;5.45;;;3.72;;
50350;SDS011;36250;48.740;22.174;2024-03-06T12:10:49;6.28;;;5.00;;
50350;SDS011;36250;48.740;22.174;2024-03-06T12:13:14;4.25;;;3.70;;
50350;SDS011;36250;48.740;22.174;2024-03-06T12:15:43;4.50;;;3.45;;
50350;SDS011;36250;48.740;22.174;2024-03-06T12:18:10;10.27;;;4.82;;
50350;SDS011;36250;48.740;22.174;2024-03-06T12:20:35;4.55;;;3.45;;
50350;SDS011;36250;48.740;22.174;2024-03-06T12:23:06;8.00;;;3.38;;
50350;SDS011;36250;48.740;22.174;2024-03-06T12:25:31;8.60;;;3.33;;
50350;SDS011;36250;48.740;22.174;2024-03-06T12:28:05;18.88;;;10.80;;
50350;SDS011;36250;48.740;22.174;2024-03-06T12:30:38;7.22;;;3.63;;
50350;SDS011;36250;48.740;22.174;2024-03-06T12:33:07;9.73;;;3.08;;
50350;SDS011;36250;48.740;22.174;2024-03-06T12:35:33;7.28;;;5.18;;
50350;SDS011;36250;48.740;22.174;2024-03-06T12:37:58;13.10;;;7.45;;
50350;SDS011;36250;48.740;22.174;2024-03-06T12:40:24;8.95;;;4.53;;
50350;SDS011;36250;48.740;22.174;2024-03-06T12:42:50;13.98;;;3.58;;
50350;SDS011;36250;48.740;22.174;2024-03-06T12:45:17;6.30;;;3.28;;
50350;SDS011;36250;48.740;22.174;2024-03-06T12:47:43;20.60;;;5.72;;
50350;SDS011;36250;48.740;22.174;2024-03-06T12:50:10;6.25;;;3.60;;
50350;SDS011;36250;48.740;22.174;2024-03-06T12:52:36;3.97;;;3.30;;
50350;SDS011;36250;48.740;22.174;2024-03-06T12:55:02;4.88;;;2.88;;
50350;SDS011;36250;48.740;22.174;2024-03-06T12:57:30;13.82;;;5.35;;
50350;SDS011;36250;48.740;22.174;2024-03-06T12:59:56;4.18;;;3.25;;
50350;SDS011;36250;48.740;22.174;2024-03-06T13:02:21;6.82;;;3.03;;
50350;SDS011;36250;48.740;22.174;2024-03-06T13:04:47;3.42;;;2.78;;
50350;SDS011;36250;48.740;22.174;2024-03-06T13:07:12;3.25;;;2.22;;
50350;SDS011;36250;48.740;22.174;2024-03-06T13:09:39;2.92;;;2.50;;
50350;SDS011;36250;48.740;22.174;2024-03-06T13:12:04;4.68;;;3.00;;
50350;SDS011;36250;48.740;22.174;2024-03-06T13:14:31;8.23;;;3.35;;
50350;SDS011;36250;48.740;22.174;2024-03-06T13:16:57;5.38;;;2.30;;
50350;SDS011;36250;48.740;22.174;2024-03-06T13:19:22;3.33;;;2.45;;
50350;SDS011;36250;48.740;22.174;2024-03-06T13:21:48;8.77;;;4.50;;
50350;SDS011;36250;48.740;22.174;2024-03-06T13:24:13;7.00;;;2.88;;
50350;SDS011;36250;48.740;22.174;2024-03-06T13:26:39;6.70;;;2.25;;
50350;SDS011;36250;48.740;22.174;2024-03-06T13:29:05;2.72;;;2.22;;
50350;SDS011;36250;48.740;22.174;2024-03-06T13:31:31;2.28;;;1.58;;
50350;SDS011;36250;48.740;22.174;2024-03-06T13:33:58;16.33;;;6.75;;
50350;SDS011;36250;48.740;22.174;2024-03-06T13:36:28;12.00;;;3.63;;
50350;SDS011;36250;48.740;22.174;2024-03-06T13:38:53;6.00;;;2.55;;
50350;SDS011;36250;48.740;22.174;2024-03-06T13:41:19;8.18;;;2.05;;
50350;SDS011;36250;48.740;22.174;2024-03-06T13:43:44;3.67;;;1.73;;
50350;SDS011;36250;48.740;22.174;2024-03-06T13:46:09;2.80;;;1.90;;
50350;SDS011;36250;48.740;22.174;2024-03-06T13:48:35;2.67;;;2.17;;
50350;SDS011;36250;48.740;22.174;2024-03-06T13:51:01;2.75;;;1.88;;
50350;SDS011;36250;48.740;22.174;2024-03-06T13:53:27;4.93;;;2.35;;
50350;SDS011;36250;48.740;22.174;2024-03-06T13:55:52;2.33;;;2.13;;
50350;SDS011;36250;48.740;22.174;2024-03-06T13:58:17;4.68;;;2.85;;
50350;SDS011;36250;48.740;22.174;2024-03-06T14:00:43;4.32;;;2.40;;
50350;SDS011;36250;48.740;22.174;2024-03-06T14:03:09;4.00;;;2.38;;
50350;SDS011;36250;48.740;22.174;2024-03-06T14:05:36;2.22;;;2.03;;
50350;SDS011;36250;48.740;22.174;2024-03-06T14:08:02;6.25;;;2.58;;
50350;SDS011;36250;48.740;22.174;2024-03-06T14:10:28;8.95;;;2.53;;
50350;SDS011;36250;48.740;22.174;2024-03-06T14:12:55;3.20;;;2.65;;
50350;SDS011;36250;48.740;22.174;2024-03-06T14:15:20;4.25;;;2.72;;
50350;SDS011;36250;48.740;22.174;2024-03-06T14:17:47;4.10;;;3.10;;
50350;SDS011;36250;48.740;22.174;2024-03-06T14:20:13;3.90;;;2.63;;
50350;SDS011;36250;48.740;22.174;2024-03-06T14:22:38;9.57;;;5.25;;
50350;SDS011;36250;48.740;22.174;2024-03-06T14:25:04;19.40;;;11.25;;
50350;SDS011;36250;48.740;22.174;2024-03-06T14:27:29;20.33;;;9.98;;
50350;SDS011;36250;48.740;22.174;2024-03-06T14:29:55;37.30;;;17.05;;
50350;SDS011;36250;48.740;22.174;2024-03-06T14:32:20;38.58;;;20.73;;